Time;durP1;ratioP1;P1;durP2;ratioP2;P2;SDS_P1;SDS_P2;PMS_P1;PMS_P2;Temp;Humidity;BMP_temperature;BMP_pressure;BME280_temperature;BME280_humidity;BME280_pressure;Samples;Min_cycle;Max_cycle;Signal;HPM_P1;HPM_P2
2021/12/17 00:00:05;;;;;;;2.45;2.25;;;;;;;6.99;100.00;103314.81;5084910;28;20032;-48
2021/12/17 00:05:15;;;;;;;3.42;2.33;;;;;;;7.01;100.00;103319.16;5066906;28;20064;-47
2021/12/17 00:07:40;;;;;;;4.60;3.08;;;;;;;6.99;100.00;103321.88;5066081;28;20501;-49
2021/12/17 00:10:18;;;;;;;1.98;1.83;;;;;;;6.99;100.00;103316.59;5078715;28;20060;-50
2021/12/17 00:12:45;;;;;;;2.58;2.13;;;;;;;6.97;100.00;103316.72;5065921;28;20047;-48
2021/12/17 00:15:11;;;;;;;3.67;2.53;;;;;;;7.00;100.00;103315.69;5066488;28;20040;-53
2021/12/17 00:17:48;;;;;;;6.72;3.22;;;;;;;7.00;100.00;103310.41;5067061;28;20501;-52
2021/12/17 00:20:53;;;;;;;4.50;2.80;;;;;;;6.98;100.00;103312.28;5068263;28;20550;-50
2021/12/17 00:53:25;;;;;;;8.85;2.97;;;;;;;6.85;100.00;103304.31;5079571;28;20051;-53
2021/12/17 00:55:51;;;;;;;5.00;2.95;;;;;;;6.85;100.00;103306.94;5068586;28;20057;-50
2021/12/17 00:58:17;;;;;;;2.88;2.38;;;;;;;6.85;100.00;103311.38;5080006;28;20036;-52
2021/12/17 01:00:42;;;;;;;5.38;2.60;;;;;;;6.84;100.00;103315.81;5069143;28;20024;-52
2021/12/17 01:03:08;;;;;;;4.78;2.20;;;;;;;6.86;100.00;103313.06;5084862;28;20455;-48
2021/12/17 01:05:34;;;;;;;3.53;2.78;;;;;;;6.87;100.00;103317.41;5080671;28;20078;-49
2021/12/17 01:08:01;;;;;;;3.05;1.75;;;;;;;6.87;100.00;103315.59;5066927;28;20028;-52
2021/12/17 01:10:31;;;;;;;4.45;2.55;;;;;;;6.88;100.00;103305.91;5083873;28;20040;-53
2021/12/17 01:12:58;;;;;;;3.55;2.20;;;;;;;6.86;100.00;103299.88;5069640;28;20110;-51
2021/12/17 01:15:24;;;;;;;5.20;2.85;;;;;;;6.86;100.00;103303.34;5070061;28;20039;-52
2021/12/17 01:17:54;;;;;;;6.35;3.70;;;;;;;6.84;100.00;103310.53;5069648;28;20048;-52
2021/12/17 01:37:12;;;;;;;3.78;2.70;;;;;;;6.75;100.00;103304.03;5069582;28;20195;-48
2021/12/17 01:40:38;;;;;;;1.90;1.42;;;;;;;6.77;100.00;103299.50;5085227;28;20036;-52
2021/12/17 01:42:23;;;;;;;7.05;2.40;;;;;;;6.77;100.00;103299.50;5084026;28;20039;-52
2021/12/17 01:44:48;;;;;;;3.05;2.00;;;;;;;6.78;100.00;103295.94;5086558;28;20032;-48
2021/12/17 01:47:14;;;;;;;2.10;1.75;;;;;;;6.78;100.00;103306.47;5086473;28;20123;-51
2021/12/17 02:00:40;;;;;;;2.10;1.33;;;;;;;6.77;100.00;103298.69;5068667;28;20043;-48
2021/12/17 02:03:07;;;;;;;2.47;2.28;;;;;;;6.74;100.00;103296.25;5087642;28;20389;-51
2021/12/17 02:05:35;;;;;;;3.15;1.92;;;;;;;6.72;100.00;103296.31;5083407;28;20119;-50
2021/12/17 02:08:01;;;;;;;5.97;2.08;;;;;;;6.73;100.00;103299.81;5071730;28;20028;-49
2021/12/17 02:29:12;;;;;;;6.03;3.42;;;;;;;6.65;100.00;103299.44;5068633;28;20098;-49
2021/12/17 02:31:38;;;;;;;1.73;1.63;;;;;;;6.64;100.00;103292.50;5076191;28;20089;-50
2021/12/17 02:34:16;;;;;;;6.97;2.28;;;;;;;6.64;100.00;103298.59;5073603;28;20502;-50
2021/12/17 02:36:44;;;;;;;5.30;2.00;;;;;;;6.72;100.00;103295.47;5068935;28;20058;-49
2021/12/17 02:47:05;;;;;;;3.90;1.58;;;;;;;6.67;100.00;103293.13;5086821;28;20041;-52
2021/12/17 02:49:31;;;;;;;2.97;1.38;;;;;;;6.67;100.00;103292.28;5071879;28;20041;-52
2021/12/17 02:51:59;;;;;;;3.55;2.35;;;;;;;6.67;100.00;103293.13;5077176;28;20044;-51
2021/12/17 02:54:26;;;;;;;3.00;2.08;;;;;;;6.68;100.00;103300.09;5072644;28;20383;-50
2021/12/17 02:56:51;;;;;;;3.85;2.05;;;;;;;6.67;100.00;103294.94;5078907;28;20040;-52
2021/12/17 02:59:17;;;;;;;2.42;2.22;;;;;;;6.66;100.00;103299.34;5074327;28;20037;-52
2021/12/17 03:01:45;;;;;;;3.90;2.10;;;;;;;6.69;100.00;103296.53;5074701;28;20032;-50
2021/12/17 03:04:13;;;;;;;2.15;1.70;;;;;;;6.68;100.00;103292.19;5085734;28;20035;-50
2021/12/17 03:06:41;;;;;;;4.55;2.10;;;;;;;6.68;100.00;103292.19;5072861;28;20044;-50
2021/12/17 03:09:06;;;;;;;1.55;1.45;;;;;;;6.65;100.00;103292.38;5078972;28;20043;-53
2021/12/17 03:11:32;;;;;;;4.90;1.90;;;;;;;6.63;100.00;103283.72;5084569;28;20036;-52
2021/12/17 03:13:57;;;;;;;1.48;1.35;;;;;;;6.68;100.00;103289.53;5075464;28;20028;-47
2021/12/17 03:16:40;;;;;;;2.15;1.88;;;;;;;6.72;100.00;103291.06;5067693;28;20494;-50
2021/12/17 03:19:22;;;;;;;1.30;1.02;;;;;;;6.73;100.00;103282.19;5067400;28;20198;-52
2021/12/17 03:24:31;;;;;;;5.70;1.92;;;;;;;6.72;100.00;103275.22;5086309;28;20058;-52
2021/12/17 03:26:57;;;;;;;2.60;2.00;;;;;;;6.69;100.00;103275.44;5069042;28;20037;-52
2021/12/17 03:29:22;;;;;;;2.60;1.80;;;;;;;6.67;100.00;103277.31;5067353;28;20108;-52
2021/12/17 03:31:47;;;;;;;3.28;1.73;;;;;;;6.67;100.00;103277.31;5077426;28;20476;-49
2021/12/17 03:36:38;;;;;;;3.10;1.45;;;;;;;6.68;100.00;103279.00;5066876;28;20302;-52
2021/12/17 03:39:04;;;;;;;3.55;1.52;;;;;;;6.75;100.00;103272.38;5078476;28;20400;-52
2021/12/17 03:41:38;;;;;;;1.10;1.08;;;;;;;6.77;100.00;103274.94;5073021;28;20033;-53
2021/12/17 03:44:05;;;;;;;1.95;1.38;;;;;;;6.74;100.00;103281.25;5084131;28;20032;-50
2021/12/17 03:46:31;;;;;;;4.38;1.50;;;;;;;6.70;100.00;103274.47;5084808;28;20530;-49
2021/12/17 03:48:57;;;;;;;1.80;1.20;;;;;;;6.68;100.00;103286.06;5075579;28;20090;-49
2021/12/17 03:51:24;;;;;;;3.03;2.30;;;;;;;6.66;100.00;103282.66;5077887;28;20028;-50
2021/12/17 03:53:59;;;;;;;2.17;1.38;;;;;;;6.67;100.00;103281.75;5076807;28;20024;-51
2021/12/17 03:56:26;;;;;;;3.42;1.60;;;;;;;6.67;100.00;103276.47;5066688;28;20035;-48
2021/12/17 03:58:54;;;;;;;3.05;1.80;;;;;;;6.66;100.00;103274.75;5069927;28;20030;-52
2021/12/17 04:01:20;;;;;;;4.72;1.95;;;;;;;6.64;100.00;103280.16;5076272;28;20020;-49
2021/12/17 04:03:46;;;;;;;4.05;3.35;;;;;;;6.64;100.00;103282.78;5085995;28;20035;-48
2021/12/17 04:06:12;;;;;;;1.63;1.23;;;;;;;6.65;100.00;103281.81;5085898;28;20058;-48
2021/12/17 04:08:37;;;;;;;3.08;1.00;;;;;;;6.65;100.00;103281.81;5078476;28;20046;-51
2021/12/17 04:11:07;;;;;;;5.20;1.63;;;;;;;6.65;100.00;103280.97;5067933;28;20039;-50
2021/12/17 04:13:37;;;;;;;6.18;2.63;;;;;;;6.64;100.00;103271.41;5079253;28;20032;-49
2021/12/17 04:16:08;;;;;;;3.83;1.30;;;;;;;6.62;100.00;103274.13;5069702;28;20032;-51
2021/12/17 04:18:40;;;;;;;2.00;1.80;;;;;;;6.65;100.00;103280.97;5078507;28;20466;-49
2021/12/17 04:21:13;;;;;;;3.10;1.45;;;;;;;6.63;100.00;103291.63;5068155;28;20044;-50
2021/12/17 04:23:39;;;;;;;2.60;1.83;;;;;;;6.63;100.00;103291.63;5078186;28;20443;-49
2021/12/17 04:26:04;;;;;;;4.93;1.95;;;;;;;6.64;100.00;103290.69;5066559;28;20028;-52
2021/12/17 04:28:30;;;;;;;2.30;2.10;;;;;;;6.65;100.00;103295.00;5066210;28;20744;-48
2021/12/17 04:30:55;;;;;;;1.67;1.33;;;;;;;6.66;100.00;103282.66;5066894;28;20625;-53
2021/12/17 04:33:21;;;;;;;5.63;2.33;;;;;;;6.67;100.00;103287.84;5077796;28;20389;-50
2021/12/17 04:35:46;;;;;;;4.65;2.28;;;;;;;6.66;100.00;103288.81;5066494;28;20390;-47
2021/12/17 04:38:14;;;;;;;1.88;1.67;;;;;;;6.65;100.00;103292.38;5075874;28;20034;-49
2021/12/17 04:40:42;;;;;;;3.67;2.28;;;;;;;6.62;100.00;103289.09;5079410;28;20036;-50
2021/12/17 04:45:45;;;;;;;1.98;1.67;;;;;;;6.64;100.00;103285.41;5080388;28;20100;-51
2021/12/17 04:59:08;;;;;;;2.22;1.85;;;;;;;6.59;100.00;103281.38;5071158;28;20055;-53
2021/12/17 05:01:34;;;;;;;3.75;2.30;;;;;;;6.59;100.00;103279.59;5073453;28;20601;-49
2021/12/17 05:04:01;;;;;;;2.58;2.35;;;;;;;6.59;100.00;103282.22;5089201;28;20553;-47
2021/12/17 05:06:29;;;;;;;3.20;2.90;;;;;;;6.59;100.00;103284.03;5076167;28;20436;-48
2021/12/17 05:08:59;;;;;;;6.18;3.75;;;;;;;6.63;100.00;103275.78;5082210;28;20032;-53
2021/12/17 05:19:56;;;;;;;2.65;2.20;;;;;;;6.71;100.00;103277.94;5086618;28;20097;-54
2021/12/17 05:22:23;;;;;;;3.20;2.40;;;;;;;6.71;100.00;103276.19;5082460;28;20394;-53
2021/12/17 05:24:49;;;;;;;7.95;2.90;;;;;;;6.70;100.00;103277.09;5071518;28;20021;-48
2021/12/17 05:27:14;;;;;;;7.13;3.05;;;;;;;6.75;100.00;103280.31;5088408;28;20031;-49
2021/12/17 05:29:39;;;;;;;3.22;2.65;;;;;;;6.76;100.00;103279.38;5084914;28;20448;-51
2021/12/17 05:32:05;;;;;;;4.88;3.17;;;;;;;6.73;100.00;103281.34;5086667;28;20600;-49
2021/12/17 05:34:30;;;;;;;5.28;3.53;;;;;;;6.73;100.00;103284.81;5085678;28;20028;-49
2021/12/17 05:36:56;;;;;;;4.57;2.97;;;;;;;6.73;100.00;103292.72;5088141;28;20519;-50
2021/12/17 05:39:21;;;;;;;4.45;3.20;;;;;;;6.72;100.00;103285.78;5082564;28;20114;-50
2021/12/17 05:41:47;;;;;;;5.82;4.05;;;;;;;6.69;100.00;103290.41;5085167;28;20460;-52
2021/12/17 05:44:15;;;;;;;4.13;2.50;;;;;;;6.66;100.00;103285.31;5085339;28;20542;-51
2021/12/17 05:46:50;;;;;;;4.20;3.10;;;;;;;6.67;100.00;103290.50;5087911;28;20043;-47
2021/12/17 05:49:17;;;;;;;2.97;2.70;;;;;;;6.68;100.00;103288.69;5085143;28;20028;-50
2021/12/17 05:51:43;;;;;;;4.63;2.63;;;;;;;6.63;100.00;103291.63;5082854;28;20032;-49
2021/12/17 05:54:08;;;;;;;3.30;2.80;;;;;;;6.64;100.00;103292.50;5082537;28;20073;-50
2021/12/17 05:56:34;;;;;;;4.72;3.30;;;;;;;6.64;100.00;103285.41;5085549;28;20028;-53
2021/12/17 05:58:59;;;;;;;5.53;4.53;;;;;;;6.65;100.00;103287.09;5085167;28;20863;-52
2021/12/17 06:01:24;;;;;;;6.82;3.47;;;;;;;6.64;100.00;103303.03;5083275;28;20107;-50
2021/12/17 06:03:50;;;;;;;4.18;2.72;;;;;;;6.62;100.00;103299.63;5083310;28;20542;-48
2021/12/17 06:06:26;;;;;;;3.92;2.90;;;;;;;6.58;100.00;103292.84;5087057;28;20031;-48
2021/12/17 06:08:51;;;;;;;5.38;3.13;;;;;;;6.52;100.00;103294.09;5080485;28;20065;-48
2021/12/17 06:11:16;;;;;;;4.18;2.95;;;;;;;6.53;100.00;103298.41;5088765;28;20043;-49
2021/12/17 06:13:42;;;;;;;5.22;3.78;;;;;;;6.53;100.00;103306.31;5085119;28;20035;-49
2021/12/17 06:16:07;;;;;;;5.65;2.92;;;;;;;6.50;100.00;103303.88;5085588;28;20032;-52
2021/12/17 06:18:32;;;;;;;3.50;3.20;;;;;;;6.47;100.00;103302.28;5084941;28;20596;-49
2021/12/17 06:20:58;;;;;;;5.32;3.60;;;;;;;6.47;100.00;103306.72;5086729;28;20138;-52
2021/12/17 06:23:23;;;;;;;3.22;2.92;;;;;;;6.47;100.00;103309.34;5077790;28;20901;-53
2021/12/17 06:25:48;;;;;;;5.47;3.38;;;;;;;6.47;100.00;103304.91;5071848;28;20127;-52
2021/12/17 06:28:16;;;;;;;4.82;3.38;;;;;;;6.47;100.00;103304.06;5080198;28;20556;-49
2021/12/17 06:30:42;;;;;;;3.72;3.17;;;;;;;6.47;100.00;103302.28;5075320;28;20552;-48
2021/12/17 06:33:08;;;;;;;2.80;2.53;;;;;;;6.49;100.00;103299.56;5078096;28;20040;-50
2021/12/17 06:35:33;;;;;;;3.97;2.78;;;;;;;6.49;100.00;103296.91;5083221;28;20027;-50
2021/12/17 06:37:59;;;;;;;2.83;2.55;;;;;;;6.45;100.00;103293.59;5083201;28;20035;-49
2021/12/17 06:40:24;;;;;;;6.75;3.60;;;;;;;6.40;100.00;103302.75;5084756;28;20028;-49
2021/12/17 06:42:50;;;;;;;9.32;5.00;;;;;;;6.35;100.00;103303.06;5087121;28;20036;-51
2021/12/17 06:45:23;;;;;;;4.13;3.17;;;;;;;6.34;100.00;103304.81;5075450;28;20433;-50
2021/12/17 06:47:55;;;;;;;10.05;3.00;;;;;;;6.36;100.00;103306.53;5088426;28;20024;-49
2021/12/17 07:10:59;;;;;;;5.57;2.90;;;;;;;6.12;100.00;103315.00;5084901;28;20072;-48
2021/12/17 07:21:56;;;;;;;2.72;2.53;;;;;;;6.06;100.00;103313.56;5075660;28;20040;-52
2021/12/17 07:35:01;;;;;;;4.32;2.92;;;;;;;5.89;100.00;103304.00;5081110;28;20470;-50
2021/12/17 07:39:52;;;;;;;10.30;3.20;;;;;;;5.86;100.00;103306.81;5083410;28;20373;-49
2021/12/17 07:42:18;;;;;;;9.50;3.42;;;;;;;5.84;100.00;103308.69;5086686;28;20028;-50
2021/12/17 07:44:43;;;;;;;4.32;2.85;;;;;;;5.84;100.00;103308.69;5082498;28;20489;-51
2021/12/17 07:47:08;;;;;;;4.30;2.72;;;;;;;5.81;100.00;103303.63;5083608;28;20050;-52
2021/12/17 07:49:34;;;;;;;6.50;3.13;;;;;;;5.79;100.00;103305.50;5076728;28;20066;-53
2021/12/17 07:52:00;;;;;;;5.10;3.33;;;;;;;5.78;100.00;103306.44;5083936;28;20063;-48
2021/12/17 07:54:25;;;;;;;3.20;2.67;;;;;;;5.75;100.00;103309.22;5076084;28;20111;-50
2021/12/17 07:56:50;;;;;;;5.30;3.40;;;;;;;5.76;100.00;103318.00;5079532;28;20090;-51
2021/12/17 07:59:16;;;;;;;6.95;2.75;;;;;;;5.75;100.00;103321.56;5082056;28;20046;-51
2021/12/17 08:01:42;;;;;;;4.38;2.88;;;;;;;5.71;100.00;103320.91;5081318;28;20067;-50
2021/12/17 08:04:10;;;;;;;3.72;2.70;;;;;;;5.67;100.00;103319.38;5080727;28;20064;-50
2021/12/17 08:06:37;;;;;;;3.78;2.60;;;;;;;5.66;100.00;103328.22;5076586;28;20119;-50
2021/12/17 08:09:04;;;;;;;6.57;3.67;;;;;;;5.63;100.00;103337.13;5083827;28;20385;-50
2021/12/17 08:11:36;;;;;;;11.10;2.90;;;;;;;5.60;100.00;103331.19;5078679;28;20553;-49
2021/12/17 08:14:02;;;;;;;5.40;2.53;;;;;;;5.57;100.00;103326.09;5083805;28;20051;-48
2021/12/17 08:16:36;;;;;;;7.72;2.60;;;;;;;5.54;100.00;103339.44;5079966;28;20032;-47
2021/12/17 08:29:27;;;;;;;3.50;2.92;;;;;;;5.50;100.00;103346.69;5081351;28;20066;-48
2021/12/17 08:31:52;;;;;;;;;;;;;;;5.51;100.00;103350.16;5080185;28;20085;-47
2021/12/17 08:34:18;;;;;;;5.13;3.30;;;;;;;5.52;100.00;103343.94;5082403;28;19923;-51
2021/12/17 08:36:44;;;;;;;4.40;2.60;;;;;;;5.53;100.00;103346.50;5084135;28;20542;-47
2021/12/17 08:39:09;;;;;;;3.00;2.35;;;;;;;5.55;100.00;103343.75;5083090;28;20149;-48
2021/12/17 08:41:37;;;;;;;4.38;3.97;;;;;;;5.56;100.00;103353.38;5082773;28;20166;-48
2021/12/17 08:44:03;;;;;;;5.72;2.97;;;;;;;5.59;100.00;103346.13;5080972;28;20511;-49
2021/12/17 08:46:28;;;;;;;4.88;3.90;;;;;;;5.65;100.00;103355.47;5083729;28;20040;-53
2021/12/17 08:48:54;;;;;;;6.55;3.75;;;;;;;5.66;100.00;103339.59;5078216;28;20028;-49
2021/12/17 08:51:19;;;;;;;13.10;5.65;;;;;;;5.68;100.00;103340.34;5083434;28;20119;-48
2021/12/17 08:53:44;;;;;;;9.85;5.25;;;;;;;5.66;100.00;103342.22;5073362;28;20033;-51
2021/12/17 08:56:13;;;;;;;6.50;4.20;;;;;;;5.68;100.00;103344.78;5080783;28;20487;-47
2021/12/17 08:58:39;;;;;;;5.25;3.63;;;;;;;5.69;100.00;103351.72;5079529;28;20032;-46
2021/12/17 09:01:05;;;;;;;4.32;3.05;;;;;;;5.73;100.00;103345.34;5083489;28;20089;-49
2021/12/17 09:03:31;;;;;;;4.97;3.15;;;;;;;5.75;100.00;103347.88;5083191;28;20043;-48
2021/12/17 09:05:57;;;;;;;8.70;3.25;;;;;;;5.78;100.00;103353.84;5082504;28;20036;-51
2021/12/17 09:08:23;;;;;;;9.77;4.28;;;;;;;5.83;100.00;103353.53;5077123;28;20055;-51
2021/12/17 09:10:51;;;;;;;10.18;5.15;;;;;;;5.90;100.00;103355.72;5082610;28;20032;-48
2021/12/17 09:13:16;;;;;;;6.50;4.50;;;;;;;5.97;100.00;103360.69;5071464;28;20068;-49
2021/12/17 09:15:42;;;;;;;7.78;3.65;;;;;;;5.99;100.00;103358.78;5078144;28;20067;-50
2021/12/17 09:18:07;;;;;;;5.78;3.15;;;;;;;5.96;100.00;103356.34;5075913;28;20451;-50
2021/12/17 09:20:33;;;;;;;6.07;3.85;;;;;;;5.90;100.00;103354.88;5079241;28;20036;-52
2021/12/17 09:22:58;;;;;;;13.07;4.25;;;;;;;5.87;100.00;103357.72;5073628;28;20059;-47
2021/12/17 09:25:24;;;;;;;5.25;3.00;;;;;;;5.84;100.00;103360.53;5083267;28;20086;-49
2021/12/17 09:27:49;;;;;;;6.07;3.70;;;;;;;5.87;100.00;103368.25;5080594;28;20025;-52
2021/12/17 09:30:17;;;;;;;4.63;3.97;;;;;;;5.94;100.00;103377.50;5080249;28;20029;-52
2021/12/17 09:32:43;;;;;;;6.43;4.00;;;;;;;6.03;100.00;103379.59;5085060;28;20043;-47
2021/12/17 09:35:11;;;;;;;7.43;4.53;;;;;;;6.14;100.00;103376.31;5079864;28;21073;-47
2021/12/17 09:37:37;;;;;;;5.00;3.75;;;;;;;6.23;100.00;103378.41;5087127;28;20240;-52
2021/12/17 09:40:06;;;;;;;7.20;3.17;;;;;;;6.31;100.00;103377.97;5081644;28;20512;-48
2021/12/17 09:42:35;;;;;;;6.05;3.47;;;;;;;6.39;100.00;103385.41;5087739;28;20063;-48
2021/12/17 09:45:01;;;;;;;5.82;3.40;;;;;;;6.47;100.00;103380.50;5078355;28;20418;-50
2021/12/17 09:47:27;;;;;;;5.72;3.78;;;;;;;6.56;100.00;103382.59;5085388;28;20023;-49
2021/12/17 09:49:55;;;;;;;5.47;4.10;;;;;;;6.66;100.00;103383.72;5082947;28;20035;-53
2021/12/17 09:52:21;;;;;;;9.20;3.85;;;;;;;6.77;100.00;103383.91;5089472;28;20024;-51
2021/12/17 09:54:47;;;;;;;10.25;4.90;;;;;;;6.91;100.00;103380.41;5079451;28;20573;-51
2021/12/17 09:57:13;;;;;;;5.97;4.45;;;;;;;7.01;100.00;103387.75;5085226;28;20055;-51
2021/12/17 09:59:39;;;;;;;6.47;4.75;;;;;;;7.08;100.00;103386.41;5083090;28;20028;-49
2021/12/17 10:02:06;;;;;;;7.97;5.38;;;;;;;7.17;100.00;103384.03;5082588;28;20340;-50
2021/12/17 10:04:31;;;;;;;7.53;4.53;;;;;;;7.28;100.00;103390.41;5086532;28;20085;-53
2021/12/17 10:07:23;;;;;;;5.80;4.55;;;;;;;7.37;100.00;103379.28;5085490;28;20040;-50
2021/12/17 10:09:58;;;;;;;8.00;4.65;;;;;;;7.43;100.00;103386.78;5082994;28;20039;-51
2021/12/17 10:12:29;;;;;;;5.28;3.88;;;;;;;7.49;100.00;103386.41;5087470;28;20065;-50
2021/12/17 10:15:04;;;;;;;8.48;4.15;;;;;;;7.56;100.00;103377.16;5084760;28;20558;-49
2021/12/17 10:17:30;;;;;;;5.07;4.03;;;;;;;7.61;100.00;103384.75;5081703;28;20613;-51
2021/12/17 10:19:56;;;;;;;10.05;5.32;;;;;;;7.64;100.00;103382.75;5079889;28;20060;-48
2021/12/17 10:22:23;;;;;;;7.85;3.42;;;;;;;7.67;100.00;103375.56;5087720;28;20024;-49
2021/12/17 10:25:02;;;;;;;8.38;4.30;;;;;;;7.72;100.00;103373.47;5084500;28;20062;-52
2021/12/17 10:27:31;;;;;;;8.30;4.70;;;;;;;7.74;100.00;103372.41;5073995;28;20043;-52
2021/12/17 10:29:56;;;;;;;10.07;4.68;;;;;;;7.73;100.00;103378.66;5082739;28;20092;-51
2021/12/17 10:32:24;;;;;;;7.65;4.22;;;;;;;7.78;100.00;103375.72;5084443;28;20403;-48
2021/12/17 10:35:07;;;;;;;7.43;4.85;;;;;;;7.85;100.00;103374.38;5087958;28;20523;-49
2021/12/17 10:37:42;;;;;;;9.55;5.50;;;;;;;7.83;100.00;103379.75;5082762;28;20431;-53
2021/12/17 10:40:36;;;;;;;8.82;4.75;;;;;;;7.89;100.00;103382.94;5081603;28;20431;-50
2021/12/17 10:43:13;;;;;;;9.70;5.50;;;;;;;7.91;100.00;103368.66;5078339;28;20533;-47
2021/12/17 10:45:43;;;;;;;11.48;5.82;;;;;;;7.93;100.00;103373.84;5079122;28;20039;-50
2021/12/17 10:51:30;;;;;;;9.98;6.25;;;;;;;8.00;100.00;103373.34;5024467;28;20041;-50
2021/12/17 10:54:04;;;;;;;10.00;5.78;;;;;;;8.02;100.00;103367.94;5073605;28;20051;-52
2021/12/17 10:56:36;;;;;;;10.00;5.97;;;;;;;7.89;100.00;103365.28;5076275;28;20492;-50
2021/12/17 10:59:14;;;;;;;10.55;5.50;;;;;;;7.74;100.00;103369.78;5083700;28;20035;-53
2021/12/17 11:01:43;;;;;;;11.52;5.57;;;;;;;7.64;100.00;103364.28;5086011;28;20507;-53
2021/12/17 11:04:13;;;;;;;8.70;4.93;;;;;;;7.60;100.00;103354.84;5086114;28;20040;-50
2021/12/17 11:06:47;;;;;;;9.23;4.85;;;;;;;7.62;100.00;103354.75;5080215;28;20073;-52
2021/12/17 11:09:30;;;;;;;14.18;5.28;;;;;;;7.67;100.00;103357.94;5084660;28;20059;-53
2021/12/17 11:11:57;;;;;;;8.32;4.93;;;;;;;7.80;100.00;103347.41;5082582;28;20501;-49
2021/12/17 11:14:23;;;;;;;8.98;4.70;;;;;;;8.01;100.00;103343.31;5080736;28;20390;-51
2021/12/17 11:16:49;;;;;;;6.18;4.80;;;;;;;8.23;100.00;103347.13;5074815;28;20142;-49
2021/12/17 11:19:15;;;;;;;9.38;4.95;;;;;;;8.28;100.00;103329.16;5081671;28;20090;-50
2021/12/17 11:21:40;;;;;;;13.63;5.72;;;;;;;8.31;100.00;103342.16;5081308;28;20516;-52
2021/12/17 11:24:06;;;;;;;7.50;5.03;;;;;;;8.32;100.00;103341.22;5084873;28;20449;-55
2021/12/17 11:26:33;;;;;;;11.52;4.43;;;;;;;8.20;100.00;103332.31;5076091;28;20031;-49
2021/12/17 11:29:03;;;;;;;11.23;4.88;;;;;;;8.04;100.00;103331.69;5084270;28;20439;-53
2021/12/17 11:31:30;;;;;;;8.10;3.88;;;;;;;7.82;100.00;103341.09;5082867;28;20059;-50
2021/12/17 11:33:58;;;;;;;8.77;4.82;;;;;;;7.72;100.00;103340.00;5084900;28;20028;-55
2021/12/17 11:36:23;;;;;;;6.93;4.10;;;;;;;7.61;100.00;103348.63;5083093;28;20031;-52
2021/12/17 11:39:21;;;;;;;5.43;3.83;;;;;;;7.55;100.00;103335.81;5082906;28;20031;-49
2021/12/17 11:42:16;;;;;;;11.93;5.85;;;;;;;7.50;100.00;103337.94;5084614;28;20431;-53
2021/12/17 11:44:51;;;;;;;7.18;4.35;;;;;;;7.58;100.00;103347.97;5076201;28;20036;-51
2021/12/17 11:47:16;;;;;;;20.65;6.05;;;;;;;7.52;100.00;103343.97;5084424;28;20031;-51
2021/12/17 11:49:48;;;;;;;10.80;5.35;;;;;;;7.45;100.00;103349.75;5080317;28;20042;-49
2021/12/17 11:52:14;;;;;;;9.02;4.90;;;;;;;7.41;100.00;103351.75;5079401;28;20064;-49
2021/12/17 11:54:40;;;;;;;14.40;5.65;;;;;;;7.48;100.00;103350.38;5072773;28;20031;-50
2021/12/17 11:57:16;;;;;;;8.93;5.18;;;;;;;7.69;100.00;103355.19;5076803;28;20032;-49
2021/12/17 11:59:45;;;;;;;19.58;5.45;;;;;;;7.93;100.00;103337.72;5079234;28;20539;-49
2021/12/17 12:02:17;;;;;;;9.95;4.97;;;;;;;8.05;100.00;103336.88;5082001;28;20047;-49
2021/12/17 12:04:52;;;;;;;8.27;4.57;;;;;;;8.14;100.00;103332.75;5086521;28;20499;-49
2021/12/17 12:07:40;;;;;;;12.75;5.00;;;;;;;8.14;100.00;103321.34;5078202;28;20031;-51
2021/12/17 12:10:12;;;;;;;14.30;5.13;;;;;;;8.07;100.00;103324.38;5083091;28;20475;-50
2021/12/17 12:12:38;;;;;;;9.13;4.22;;;;;;;8.03;100.00;103322.91;5082879;28;20096;-53
2021/12/17 12:15:24;;;;;;;5.53;3.75;;;;;;;8.06;100.00;103327.16;5084051;28;20462;-52
2021/12/17 12:18:08;;;;;;;8.77;4.57;;;;;;;8.15;100.00;103318.56;5077751;28;20032;-51
2021/12/17 12:20:40;;;;;;;9.82;5.15;;;;;;;8.23;100.00;103320.69;5082068;28;20071;-50
2021/12/17 12:23:21;;;;;;;5.25;4.13;;;;;;;8.23;100.00;103315.41;5080571;28;20036;-52
2021/12/17 12:26:11;;;;;;;7.30;4.53;;;;;;;8.15;100.00;103313.28;5081232;28;20036;-48
2021/12/17 12:28:45;;;;;;;11.98;6.85;;;;;;;8.06;100.00;103312.13;5074751;28;20317;-49
2021/12/17 12:31:38;;;;;;;10.07;6.53;;;;;;;8.02;100.00;103321.22;5083026;28;20024;-48
2021/12/17 12:34:12;;;;;;;14.45;8.00;;;;;;;8.06;100.00;103319.22;5079103;28;20052;-48
2021/12/17 12:36:53;;;;;;;12.35;7.00;;;;;;;8.20;100.00;103318.25;5080819;28;20028;-50
2021/12/17 12:39:24;;;;;;;9.65;7.25;;;;;;;8.31;100.00;103310.41;5074887;28;20039;-52
2021/12/17 12:41:58;;;;;;;15.85;8.60;;;;;;;8.39;100.00;103317.81;5082022;28;20076;-50
2021/12/17 12:44:42;;;;;;;12.00;5.97;;;;;;;8.62;100.00;103313.59;5080229;28;20067;-52
2021/12/17 12:47:26;;;;;;;19.10;8.98;;;;;;;8.74;100.00;103315.38;5078909;28;20043;-54
2021/12/17 12:49:54;;;;;;;7.22;5.55;;;;;;;8.66;100.00;103304.50;5083611;28;20046;-50
2021/12/17 12:52:31;;;;;;;11.93;5.30;;;;;;;8.64;100.00;103309.88;5080225;28;20026;-48
2021/12/17 12:54:57;;;;;;;10.00;5.28;;;;;;;8.52;100.00;103311.63;5077020;28;20485;-51
2021/12/17 12:57:34;;;;;;;11.55;4.47;;;;;;;8.38;100.00;103301.13;5080221;28;20036;-49
2021/12/17 13:00:06;;;;;;;8.75;5.18;;;;;;;8.17;100.00;103297.34;5078316;28;20040;-49
2021/12/17 13:02:32;;;;;;;8.70;5.00;;;;;;;7.89;100.00;103308.94;5078160;28;20158;-49
2021/12/17 13:05:00;;;;;;;9.05;7.18;;;;;;;7.61;100.00;103311.66;5082190;28;20451;-51
2021/12/17 13:07:41;;;;;;;11.90;5.22;;;;;;;7.38;100.00;103309.69;5104844;27;20102;-51
2021/12/17 13:10:10;;;;;;;10.68;5.10;;;;;;;7.18;100.00;103311.84;5086154;28;20039;-53
2021/12/17 13:12:36;;;;;;;11.40;6.45;;;;;;;7.03;100.00;103319.91;5086302;28;20032;-49
2021/12/17 13:15:18;;;;;;;11.70;6.97;;;;;;;7.01;100.00;103312.09;5085650;28;20548;-53
2021/12/17 13:23:20;;;;;;;11.45;6.28;;;;;;;7.09;100.00;103307.16;5083219;28;20036;-47
2021/12/17 13:25:45;;;;;;;13.50;6.80;;;;;;;7.21;100.00;103297.59;5079004;28;20032;-52
2021/12/17 13:28:11;;;;;;;11.07;6.60;;;;;;;7.16;100.00;103305.81;5076098;28;20081;-51
2021/12/17 13:30:36;;;;;;;11.98;7.68;;;;;;;7.03;100.00;103299.66;5080639;28;20337;-52
2021/12/17 13:33:02;;;;;;;16.23;8.95;;;;;;;7.01;100.00;103301.53;5078529;28;20084;-47
2021/12/17 13:35:33;;;;;;;15.32;6.32;;;;;;;7.07;100.00;103301.13;5079925;28;20083;-47
2021/12/17 13:38:02;;;;;;;12.43;7.75;;;;;;;7.07;100.00;103303.75;5080089;28;20080;-52
2021/12/17 13:40:28;;;;;;;15.38;8.77;;;;;;;6.98;100.00;103297.28;5083230;28;20032;-52
2021/12/17 13:42:55;;;;;;;16.45;6.90;;;;;;;6.93;100.00;103298.53;5082337;28;20470;-49
2021/12/17 13:45:21;;;;;;;12.40;6.78;;;;;;;6.87;100.00;103293.66;5079083;28;20891;-50
2021/12/17 13:47:54;;;;;;;9.38;6.18;;;;;;;6.87;100.00;103298.94;5081836;28;20051;-49
2021/12/17 13:50:31;;;;;;;10.73;5.70;;;;;;;6.86;100.00;103298.06;5083537;28;20032;-51
2021/12/17 13:53:04;;;;;;;9.23;6.05;;;;;;;6.77;100.00;103299.50;5081931;28;20036;-47
2021/12/17 13:55:33;;;;;;;10.70;4.78;;;;;;;6.68;100.00;103301.88;5081156;28;20025;-49
2021/12/17 13:58:05;;;;;;;8.05;5.47;;;;;;;6.70;100.00;103298.19;5082839;28;20029;-49
2021/12/17 14:00:39;;;;;;;12.60;5.30;;;;;;;6.53;100.00;103298.41;5085401;28;20024;-52
2021/12/17 14:03:05;;;;;;;10.50;4.15;;;;;;;6.44;100.00;103289.28;5076534;28;20032;-51
2021/12/17 14:05:40;;;;;;;11.43;4.57;;;;;;;6.36;100.00;103293.34;5079686;28;20028;-52
2021/12/17 14:08:09;;;;;;;8.13;3.47;;;;;;;6.37;100.00;103295.88;5078801;28;20040;-49
2021/12/17 14:10:35;;;;;;;8.00;3.53;;;;;;;6.30;100.00;103284.88;5076465;28;20039;-52
2021/12/17 14:13:02;;;;;;;5.40;3.90;;;;;;;6.20;100.00;103291.66;5080315;28;20105;-49
2021/12/17 14:15:31;;;;;;;9.70;5.10;;;;;;;6.08;100.00;103290.59;5080530;28;20024;-48
2021/12/17 14:17:59;;;;;;;10.93;4.85;;;;;;;6.01;100.00;103283.16;5080013;28;20487;-51
2021/12/17 14:20:29;;;;;;;7.38;4.65;;;;;;;6.00;100.00;103290.22;5079027;28;20377;-50
2021/12/17 14:23:05;;;;;;;5.38;3.50;;;;;;;6.08;100.00;103289.75;5077850;28;20457;-50
2021/12/17 14:25:44;;;;;;;10.25;5.43;;;;;;;6.14;100.00;103291.16;5072481;28;20073;-50
2021/12/17 14:28:14;;;;;;;7.82;4.90;;;;;;;6.11;100.00;103281.66;5076418;28;20032;-51